sensor_id;sensor_type;location;lat;lon;timestamp;P1;durP1;ratioP1;P2;durP2;ratioP2
41719;SDS011;27405;53.316;-6.294;2023-08-17T00:02:15;8.02;;;2.20;;
41719;SDS011;27405;53.316;-6.294;2023-08-17T00:04:41;4.35;;;2.00;;
41719;SDS011;27405;53.316;-6.294;2023-08-17T00:07:07;5.22;;;2.13;;
41719;SDS011;27405;53.316;-6.294;2023-08-17T00:09:33;4.70;;;2.15;;
41719;SDS011;27405;53.316;-6.294;2023-08-17T00:11:59;6.03;;;2.35;;
41719;SDS011;27405;53.316;-6.294;2023-08-17T00:14:25;7.63;;;2.10;;
41719;SDS011;27405;53.316;-6.294;2023-08-17T00:16:51;6.47;;;1.80;;
41719;SDS011;27405;53.316;-6.294;2023-08-17T00:19:17;3.40;;;1.67;;
41719;SDS011;27405;53.316;-6.294;2023-08-17T00:21:46;4.00;;;1.85;;
41719;SDS011;27405;53.316;-6.294;2023-08-17T00:24:13;3.25;;;1.60;;
41719;SDS011;27405;53.316;-6.294;2023-08-17T00:26:38;2.38;;;1.70;;
41719;SDS011;27405;53.316;-6.294;2023-08-17T00:29:04;4.80;;;2.35;;
41719;SDS011;27405;53.316;-6.294;2023-08-17T00:31:30;4.85;;;2.10;;
41719;SDS011;27405;53.316;-6.294;2023-08-17T00:33:56;4.68;;;2.22;;
41719;SDS011;27405;53.316;-6.294;2023-08-17T00:36:23;5.47;;;1.92;;
41719;SDS011;27405;53.316;-6.294;2023-08-17T00:38:49;6.03;;;2.33;;
41719;SDS011;27405;53.316;-6.294;2023-08-17T00:41:14;3.97;;;2.10;;
41719;SDS011;27405;53.316;-6.294;2023-08-17T00:43:40;7.40;;;2.20;;
41719;SDS011;27405;53.316;-6.294;2023-08-17T00:46:07;5.35;;;1.83;;
41719;SDS011;27405;53.316;-6.294;2023-08-17T00:48:33;3.05;;;1.60;;
41719;SDS011;27405;53.316;-6.294;2023-08-17T00:50:59;4.38;;;1.75;;
41719;SDS011;27405;53.316;-6.294;2023-08-17T00:53:26;5.80;;;2.05;;
41719;SDS011;27405;53.316;-6.294;2023-08-17T00:55:55;4.97;;;2.00;;
41719;SDS011;27405;53.316;-6.294;2023-08-17T00:58:21;3.85;;;1.95;;
41719;SDS011;27405;53.316;-6.294;2023-08-17T01:00:47;5.93;;;1.98;;
41719;SDS011;27405;53.316;-6.294;2023-08-17T01:03:16;5.72;;;1.98;;
41719;SDS011;27405;53.316;-6.294;2023-08-17T01:05:42;3.17;;;1.67;;
41719;SDS011;27405;53.316;-6.294;2023-08-17T01:08:09;5.10;;;2.00;;
41719;SDS011;27405;53.316;-6.294;2023-08-17T01:10:45;4.40;;;2.03;;
41719;SDS011;27405;53.316;-6.294;2023-08-17T01:16:42;4.07;;;1.70;;
41719;SDS011;27405;53.316;-6.294;2023-08-17T01:19:21;2.67;;;2.00;;
41719;SDS011;27405;53.316;-6.294;2023-08-17T01:21:51;4.28;;;2.08;;
41719;SDS011;27405;53.316;-6.294;2023-08-17T01:24:23;5.28;;;1.70;;
41719;SDS011;27405;53.316;-6.294;2023-08-17T01:26:49;8.00;;;2.13;;
41719;SDS011;27405;53.316;-6.294;2023-08-17T01:29:15;6.47;;;2.45;;
41719;SDS011;27405;53.316;-6.294;2023-08-17T01:31:49;5.70;;;2.40;;
41719;SDS011;27405;53.316;-6.294;2023-08-17T01:34:18;4.88;;;2.00;;
41719;SDS011;27405;53.316;-6.294;2023-08-17T01:36:56;4.72;;;2.00;;
41719;SDS011;27405;53.316;-6.294;2023-08-17T01:42:47;5.68;;;1.85;;
41719;SDS011;27405;53.316;-6.294;2023-08-17T01:45:15;5.65;;;1.75;;
41719;SDS011;27405;53.316;-6.294;2023-08-17T01:47:42;6.57;;;1.70;;
41719;SDS011;27405;53.316;-6.294;2023-08-17T01:50:08;6.90;;;1.90;;
41719;SDS011;27405;53.316;-6.294;2023-08-17T01:52:34;4.45;;;1.63;;
41719;SDS011;27405;53.316;-6.294;2023-08-17T01:55:00;6.95;;;1.83;;
41719;SDS011;27405;53.316;-6.294;2023-08-17T01:57:26;2.35;;;1.23;;
41719;SDS011;27405;53.316;-6.294;2023-08-17T01:59:52;4.28;;;1.58;;
41719;SDS011;27405;53.316;-6.294;2023-08-17T02:02:18;2.85;;;1.60;;
41719;SDS011;27405;53.316;-6.294;2023-08-17T02:08:08;5.18;;;1.65;;
41719;SDS011;27405;53.316;-6.294;2023-08-17T02:13:56;6.93;;;1.52;;
41719;SDS011;27405;53.316;-6.294;2023-08-17T02:16:22;2.67;;;1.70;;
41719;SDS011;27405;53.316;-6.294;2023-08-17T02:18:48;6.50;;;1.73;;
41719;SDS011;27405;53.316;-6.294;2023-08-17T02:21:14;4.93;;;1.58;;
41719;SDS011;27405;53.316;-6.294;2023-08-17T02:23:40;3.63;;;1.27;;
41719;SDS011;27405;53.316;-6.294;2023-08-17T02:26:06;2.80;;;1.45;;
41719;SDS011;27405;53.316;-6.294;2023-08-17T02:28:32;8.65;;;2.00;;
41719;SDS011;27405;53.316;-6.294;2023-08-17T02:30:58;4.68;;;1.70;;
41719;SDS011;27405;53.316;-6.294;2023-08-17T02:33:24;4.35;;;1.63;;
41719;SDS011;27405;53.316;-6.294;2023-08-17T02:35:50;4.60;;;1.50;;
41719;SDS011;27405;53.316;-6.294;2023-08-17T02:38:17;2.40;;;1.17;;
41719;SDS011;27405;53.316;-6.294;2023-08-17T02:40:43;4.13;;;1.42;;
41719;SDS011;27405;53.316;-6.294;2023-08-17T02:43:09;3.05;;;1.38;;
41719;SDS011;27405;53.316;-6.294;2023-08-17T02:45:35;3.03;;;1.25;;
41719;SDS011;27405;53.316;-6.294;2023-08-17T02:48:01;2.67;;;1.42;;
41719;SDS011;27405;53.316;-6.294;2023-08-17T02:50:27;6.53;;;1.70;;
41719;SDS011;27405;53.316;-6.294;2023-08-17T02:52:53;4.38;;;1.30;;
41719;SDS011;27405;53.316;-6.294;2023-08-17T02:55:19;4.07;;;1.40;;
41719;SDS011;27405;53.316;-6.294;2023-08-17T02:57:45;5.20;;;1.40;;
41719;SDS011;27405;53.316;-6.294;2023-08-17T03:00:11;3.42;;;1.40;;
41719;SDS011;27405;53.316;-6.294;2023-08-17T03:02:38;5.68;;;1.20;;
41719;SDS011;27405;53.316;-6.294;2023-08-17T03:05:04;3.47;;;1.48;;
41719;SDS011;27405;53.316;-6.294;2023-08-17T03:07:30;2.35;;;1.35;;
41719;SDS011;27405;53.316;-6.294;2023-08-17T03:13:17;3.90;;;1.40;;
41719;SDS011;27405;53.316;-6.294;2023-08-17T03:15:43;6.07;;;1.33;;
41719;SDS011;27405;53.316;-6.294;2023-08-17T03:18:09;3.97;;;1.40;;
41719;SDS011;27405;53.316;-6.294;2023-08-17T03:20:35;3.65;;;1.33;;
41719;SDS011;27405;53.316;-6.294;2023-08-17T03:23:01;5.95;;;1.67;;
41719;SDS011;27405;53.316;-6.294;2023-08-17T03:25:31;4.32;;;1.45;;
41719;SDS011;27405;53.316;-6.294;2023-08-17T03:27:57;3.08;;;1.55;;
41719;SDS011;27405;53.316;-6.294;2023-08-17T03:30:23;2.25;;;1.55;;
41719;SDS011;27405;53.316;-6.294;2023-08-17T03:32:49;4.07;;;1.52;;
41719;SDS011;27405;53.316;-6.294;2023-08-17T03:35:15;5.22;;;1.70;;
41719;SDS011;27405;53.316;-6.294;2023-08-17T03:37:41;5.38;;;1.33;;
41719;SDS011;27405;53.316;-6.294;2023-08-17T03:40:07;6.28;;;1.77;;
41719;SDS011;27405;53.316;-6.294;2023-08-17T03:42:33;8.60;;;1.83;;
41719;SDS011;27405;53.316;-6.294;2023-08-17T03:44:59;3.30;;;1.60;;
41719;SDS011;27405;53.316;-6.294;2023-08-17T03:47:25;4.95;;;1.60;;
41719;SDS011;27405;53.316;-6.294;2023-08-17T03:49:51;4.30;;;1.63;;
41719;SDS011;27405;53.316;-6.294;2023-08-17T03:52:17;6.63;;;1.80;;
41719;SDS011;27405;53.316;-6.294;2023-08-17T03:54:43;5.63;;;1.98;;
41719;SDS011;27405;53.316;-6.294;2023-08-17T04:00:31;3.78;;;1.60;;
41719;SDS011;27405;53.316;-6.294;2023-08-17T04:02:57;6.47;;;1.75;;
41719;SDS011;27405;53.316;-6.294;2023-08-17T04:05:23;3.88;;;1.58;;
41719;SDS011;27405;53.316;-6.294;2023-08-17T04:07:49;5.78;;;1.50;;
41719;SDS011;27405;53.316;-6.294;2023-08-17T04:10:15;4.90;;;1.77;;
41719;SDS011;27405;53.316;-6.294;2023-08-17T04:12:41;5.25;;;2.03;;
41719;SDS011;27405;53.316;-6.294;2023-08-17T04:15:07;7.20;;;2.08;;
41719;SDS011;27405;53.316;-6.294;2023-08-17T04:17:33;7.22;;;1.88;;
41719;SDS011;27405;53.316;-6.294;2023-08-17T04:19:59;7.13;;;2.10;;
41719;SDS011;27405;53.316;-6.294;2023-08-17T04:22:25;4.63;;;1.88;;
41719;SDS011;27405;53.316;-6.294;2023-08-17T04:24:51;6.65;;;1.90;;
41719;SDS011;27405;53.316;-6.294;2023-08-17T04:27:17;6.30;;;2.38;;
41719;SDS011;27405;53.316;-6.294;2023-08-17T04:29:43;5.40;;;1.90;;
41719;SDS011;27405;53.316;-6.294;2023-08-17T04:32:13;7.70;;;2.15;;
41719;SDS011;27405;53.316;-6.294;2023-08-17T04:34:41;9.90;;;2.38;;
41719;SDS011;27405;53.316;-6.294;2023-08-17T04:37:07;11.02;;;2.78;;
41719;SDS011;27405;53.316;-6.294;2023-08-17T04:39:33;6.20;;;2.17;;
41719;SDS011;27405;53.316;-6.294;2023-08-17T04:41:59;7.05;;;2.22;;
41719;SDS011;27405;53.316;-6.294;2023-08-17T04:44:25;4.95;;;2.03;;
41719;SDS011;27405;53.316;-6.294;2023-08-17T04:46:51;3.35;;;1.77;;
41719;SDS011;27405;53.316;-6.294;2023-08-17T04:49:17;4.28;;;2.10;;
41719;SDS011;27405;53.316;-6.294;2023-08-17T04:51:43;8.18;;;2.08;;
41719;SDS011;27405;53.316;-6.294;2023-08-17T04:54:09;8.48;;;2.40;;
41719;SDS011;27405;53.316;-6.294;2023-08-17T04:56:35;5.05;;;1.98;;
41719;SDS011;27405;53.316;-6.294;2023-08-17T04:59:01;8.55;;;1.95;;
41719;SDS011;27405;53.316;-6.294;2023-08-17T05:01:27;4.18;;;2.08;;
41719;SDS011;27405;53.316;-6.294;2023-08-17T05:03:53;9.13;;;2.55;;
41719;SDS011;27405;53.316;-6.294;2023-08-17T05:06:19;7.03;;;2.60;;
41719;SDS011;27405;53.316;-6.294;2023-08-17T05:08:45;9.43;;;2.60;;
41719;SDS011;27405;53.316;-6.294;2023-08-17T05:11:11;11.10;;;2.20;;
41719;SDS011;27405;53.316;-6.294;2023-08-17T05:13:37;4.60;;;2.10;;
41719;SDS011;27405;53.316;-6.294;2023-08-17T05:16:03;11.88;;;2.63;;
41719;SDS011;27405;53.316;-6.294;2023-08-17T05:18:30;8.68;;;2.20;;
41719;SDS011;27405;53.316;-6.294;2023-08-17T05:20:56;6.50;;;2.10;;
41719;SDS011;27405;53.316;-6.294;2023-08-17T05:23:22;9.18;;;2.83;;
41719;SDS011;27405;53.316;-6.294;2023-08-17T05:25:48;7.80;;;2.53;;
41719;SDS011;27405;53.316;-6.294;2023-08-17T05:28:14;7.78;;;2.58;;
41719;SDS011;27405;53.316;-6.294;2023-08-17T05:30:40;6.63;;;2.40;;
41719;SDS011;27405;53.316;-6.294;2023-08-17T05:33:06;6.82;;;2.47;;
41719;SDS011;27405;53.316;-6.294;2023-08-17T05:35:32;8.13;;;2.75;;
41719;SDS011;27405;53.316;-6.294;2023-08-17T05:37:58;8.50;;;2.53;;
41719;SDS011;27405;53.316;-6.294;2023-08-17T05:40:24;9.10;;;2.40;;
41719;SDS011;27405;53.316;-6.294;2023-08-17T05:46:12;9.07;;;2.47;;
41719;SDS011;27405;53.316;-6.294;2023-08-17T05:48:38;12.23;;;2.38;;
41719;SDS011;27405;53.316;-6.294;2023-08-17T05:51:04;4.95;;;2.40;;
41719;SDS011;27405;53.316;-6.294;2023-08-17T05:53:30;8.50;;;2.47;;
41719;SDS011;27405;53.316;-6.294;2023-08-17T05:55:56;9.07;;;2.38;;
41719;SDS011;27405;53.316;-6.294;2023-08-17T05:58:22;12.85;;;3.22;;
41719;SDS011;27405;53.316;-6.294;2023-08-17T06:00:49;8.93;;;2.33;;
41719;SDS011;27405;53.316;-6.294;2023-08-17T06:03:15;8.30;;;2.50;;
41719;SDS011;27405;53.316;-6.294;2023-08-17T06:05:41;6.72;;;2.20;;
41719;SDS011;27405;53.316;-6.294;2023-08-17T06:08:07;8.50;;;2.58;;
41719;SDS011;27405;53.316;-6.294;2023-08-17T06:10:33;13.50;;;2.58;;
41719;SDS011;27405;53.316;-6.294;2023-08-17T06:12:59;6.15;;;2.55;;
41719;SDS011;27405;53.316;-6.294;2023-08-17T06:15:25;6.13;;;2.40;;
41719;SDS011;27405;53.316;-6.294;2023-08-17T06:17:51;9.75;;;2.40;;
41719;SDS011;27405;53.316;-6.294;2023-08-17T06:20:17;7.60;;;2.50;;
41719;SDS011;27405;53.316;-6.294;2023-08-17T06:22:44;10.00;;;3.38;;
41719;SDS011;27405;53.316;-6.294;2023-08-17T06:25:10;7.53;;;3.00;;
41719;SDS011;27405;53.316;-6.294;2023-08-17T06:27:36;6.32;;;2.28;;
41719;SDS011;27405;53.316;-6.294;2023-08-17T06:30:03;7.93;;;2.28;;
41719;SDS011;27405;53.316;-6.294;2023-08-17T06:32:29;7.13;;;1.98;;
41719;SDS011;27405;53.316;-6.294;2023-08-17T06:34:56;9.65;;;2.65;;
41719;SDS011;27405;53.316;-6.294;2023-08-17T06:37:22;12.15;;;2.67;;
41719;SDS011;27405;53.316;-6.294;2023-08-17T06:39:48;9.18;;;2.33;;
41719;SDS011;27405;53.316;-6.294;2023-08-17T06:42:14;5.65;;;2.42;;
41719;SDS011;27405;53.316;-6.294;2023-08-17T06:44:40;11.27;;;2.90;;
41719;SDS011;27405;53.316;-6.294;2023-08-17T06:47:06;9.20;;;2.42;;
41719;SDS011;27405;53.316;-6.294;2023-08-17T06:49:32;6.55;;;1.90;;
41719;SDS011;27405;53.316;-6.294;2023-08-17T06:55:21;13.35;;;2.67;;
41719;SDS011;27405;53.316;-6.294;2023-08-17T06:57:47;11.05;;;2.45;;
41719;SDS011;27405;53.316;-6.294;2023-08-17T07:00:17;13.00;;;2.50;;
41719;SDS011;27405;53.316;-6.294;2023-08-17T07:02:47;9.73;;;2.40;;
41719;SDS011;27405;53.316;-6.294;2023-08-17T07:05:16;8.93;;;2.35;;
41719;SDS011;27405;53.316;-6.294;2023-08-17T07:07:45;7.68;;;2.58;;
41719;SDS011;27405;53.316;-6.294;2023-08-17T07:10:11;7.47;;;2.13;;
41719;SDS011;27405;53.316;-6.294;2023-08-17T07:12:37;13.02;;;2.90;;
41719;SDS011;27405;53.316;-6.294;2023-08-17T07:15:04;9.20;;;2.50;;
41719;SDS011;27405;53.316;-6.294;2023-08-17T07:17:31;11.77;;;2.65;;
41719;SDS011;27405;53.316;-6.294;2023-08-17T07:19:59;10.98;;;2.17;;
41719;SDS011;27405;53.316;-6.294;2023-08-17T07:22:25;10.20;;;2.30;;
41719;SDS011;27405;53.316;-6.294;2023-08-17T07:24:51;9.98;;;2.25;;
41719;SDS011;27405;53.316;-6.294;2023-08-17T07:27:17;6.40;;;2.22;;
41719;SDS011;27405;53.316;-6.294;2023-08-17T07:29:43;3.92;;;1.77;;
41719;SDS011;27405;53.316;-6.294;2023-08-17T07:32:10;6.38;;;1.90;;
41719;SDS011;27405;53.316;-6.294;2023-08-17T07:34:36;9.48;;;2.15;;
41719;SDS011;27405;53.316;-6.294;2023-08-17T07:37:03;9.27;;;2.15;;
41719;SDS011;27405;53.316;-6.294;2023-08-17T07:39:30;7.55;;;1.67;;
41719;SDS011;27405;53.316;-6.294;2023-08-17T07:41:56;5.18;;;1.70;;
41719;SDS011;27405;53.316;-6.294;2023-08-17T07:44:22;5.93;;;1.83;;
41719;SDS011;27405;53.316;-6.294;2023-08-17T07:46:48;9.18;;;1.88;;
41719;SDS011;27405;53.316;-6.294;2023-08-17T07:49:14;7.70;;;1.80;;
41719;SDS011;27405;53.316;-6.294;2023-08-17T07:51:40;6.13;;;2.13;;
41719;SDS011;27405;53.316;-6.294;2023-08-17T07:54:06;5.40;;;1.70;;
41719;SDS011;27405;53.316;-6.294;2023-08-17T07:56:33;5.55;;;1.60;;
41719;SDS011;27405;53.316;-6.294;2023-08-17T07:58:59;7.97;;;1.95;;
41719;SDS011;27405;53.316;-6.294;2023-08-17T08:01:25;7.93;;;1.90;;
41719;SDS011;27405;53.316;-6.294;2023-08-17T08:03:51;7.05;;;1.85;;
41719;SDS011;27405;53.316;-6.294;2023-08-17T08:06:17;8.65;;;2.00;;
41719;SDS011;27405;53.316;-6.294;2023-08-17T08:08:45;6.63;;;1.83;;
41719;SDS011;27405;53.316;-6.294;2023-08-17T08:11:11;5.38;;;1.70;;
41719;SDS011;27405;53.316;-6.294;2023-08-17T08:13:37;6.60;;;1.75;;
41719;SDS011;27405;53.316;-6.294;2023-08-17T08:16:03;7.95;;;2.00;;
41719;SDS011;27405;53.316;-6.294;2023-08-17T08:18:29;6.57;;;2.15;;
41719;SDS011;27405;53.316;-6.294;2023-08-17T08:20:55;8.45;;;2.10;;
41719;SDS011;27405;53.316;-6.294;2023-08-17T08:23:21;8.55;;;3.58;;
41719;SDS011;27405;53.316;-6.294;2023-08-17T08:25:47;9.63;;;2.40;;
41719;SDS011;27405;53.316;-6.294;2023-08-17T08:28:13;6.75;;;2.13;;
41719;SDS011;27405;53.316;-6.294;2023-08-17T08:30:39;6.78;;;1.95;;
41719;SDS011;27405;53.316;-6.294;2023-08-17T08:33:05;6.65;;;2.22;;
41719;SDS011;27405;53.316;-6.294;2023-08-17T08:35:31;7.75;;;2.10;;
41719;SDS011;27405;53.316;-6.294;2023-08-17T08:37:58;4.13;;;2.05;;
41719;SDS011;27405;53.316;-6.294;2023-08-17T08:40:28;5.55;;;1.77;;
41719;SDS011;27405;53.316;-6.294;2023-08-17T08:42:56;5.15;;;1.88;;
41719;SDS011;27405;53.316;-6.294;2023-08-17T08:45:23;6.22;;;1.80;;
41719;SDS011;27405;53.316;-6.294;2023-08-17T08:47:50;9.32;;;1.90;;
41719;SDS011;27405;53.316;-6.294;2023-08-17T08:50:18;7.93;;;2.13;;
41719;SDS011;27405;53.316;-6.294;2023-08-17T08:55:17;7.78;;;1.80;;
41719;SDS011;27405;53.316;-6.294;2023-08-17T09:00:11;9.10;;;1.83;;
41719;SDS011;27405;53.316;-6.294;2023-08-17T09:02:37;7.60;;;1.65;;
41719;SDS011;27405;53.316;-6.294;2023-08-17T09:05:05;6.40;;;2.00;;
41719;SDS011;27405;53.316;-6.294;2023-08-17T09:07:34;3.80;;;1.55;;
41719;SDS011;27405;53.316;-6.294;2023-08-17T09:10:01;8.23;;;1.70;;
41719;SDS011;27405;53.316;-6.294;2023-08-17T09:12:28;7.47;;;1.80;;
41719;SDS011;27405;53.316;-6.294;2023-08-17T09:14:55;5.65;;;2.00;;
41719;SDS011;27405;53.316;-6.294;2023-08-17T09:17:24;4.75;;;1.88;;
41719;SDS011;27405;53.316;-6.294;2023-08-17T09:19:51;6.55;;;1.70;;
41719;SDS011;27405;53.316;-6.294;2023-08-17T09:22:36;8.23;;;2.10;;
41719;SDS011;27405;53.316;-6.294;2023-08-17T09:25:09;5.50;;;1.90;;
41719;SDS011;27405;53.316;-6.294;2023-08-17T09:27:36;4.22;;;2.10;;
41719;SDS011;27405;53.316;-6.294;2023-08-17T09:30:03;8.57;;;2.53;;
41719;SDS011;27405;53.316;-6.294;2023-08-17T09:32:31;7.55;;;2.20;;
41719;SDS011;27405;53.316;-6.294;2023-08-17T09:35:02;6.25;;;2.33;;
41719;SDS011;27405;53.316;-6.294;2023-08-17T09:37:29;8.82;;;2.28;;
41719;SDS011;27405;53.316;-6.294;2023-08-17T09:39:55;7.82;;;2.45;;
41719;SDS011;27405;53.316;-6.294;2023-08-17T09:42:21;7.13;;;2.33;;
41719;SDS011;27405;53.316;-6.294;2023-08-17T09:44:50;13.02;;;3.28;;
41719;SDS011;27405;53.316;-6.294;2023-08-17T09:47:17;8.77;;;2.92;;
41719;SDS011;27405;53.316;-6.294;2023-08-17T09:49:52;8.45;;;2.92;;
41719;SDS011;27405;53.316;-6.294;2023-08-17T09:52:19;9.23;;;3.50;;
41719;SDS011;27405;53.316;-6.294;2023-08-17T09:54:51;8.75;;;2.90;;
41719;SDS011;27405;53.316;-6.294;2023-08-17T09:57:19;8.10;;;3.22;;
41719;SDS011;27405;53.316;-6.294;2023-08-17T09:59:46;10.15;;;3.25;;
41719;SDS011;27405;53.316;-6.294;2023-08-17T10:02:16;10.13;;;3.35;;
41719;SDS011;27405;53.316;-6.294;2023-08-17T10:04:45;10.30;;;3.45;;
41719;SDS011;27405;53.316;-6.294;2023-08-17T10:07:18;9.02;;;3.28;;
41719;SDS011;27405;53.316;-6.294;2023-08-17T10:09:46;11.30;;;3.50;;
41719;SDS011;27405;53.316;-6.294;2023-08-17T10:12:19;8.32;;;3.40;;
41719;SDS011;27405;53.316;-6.294;2023-08-17T10:14:55;10.32;;;3.58;;
41719;SDS011;27405;53.316;-6.294;2023-08-17T10:20:54;8.93;;;3.55;;
41719;SDS011;27405;53.316;-6.294;2023-08-17T10:23:27;8.48;;;3.30;;
41719;SDS011;27405;53.316;-6.294;2023-08-17T10:25:54;8.95;;;3.20;;
41719;SDS011;27405;53.316;-6.294;2023-08-17T10:28:24;6.78;;;3.00;;
41719;SDS011;27405;53.316;-6.294;2023-08-17T10:30:50;11.77;;;3.30;;
41719;SDS011;27405;53.316;-6.294;2023-08-17T10:33:17;12.30;;;3.05;;
41719;SDS011;27405;53.316;-6.294;2023-08-17T10:35:43;9.02;;;2.88;;
41719;SDS011;27405;53.316;-6.294;2023-08-17T10:38:10;9.52;;;2.90;;
41719;SDS011;27405;53.316;-6.294;2023-08-17T10:40:38;7.50;;;2.95;;
41719;SDS011;27405;53.316;-6.294;2023-08-17T10:43:06;9.27;;;2.90;;
41719;SDS011;27405;53.316;-6.294;2023-08-17T10:45:33;9.23;;;2.80;;
41719;SDS011;27405;53.316;-6.294;2023-08-17T10:50:31;8.32;;;3.10;;
41719;SDS011;27405;53.316;-6.294;2023-08-17T10:52:58;9.75;;;3.13;;
41719;SDS011;27405;53.316;-6.294;2023-08-17T10:55:37;10.38;;;3.00;;
41719;SDS011;27405;53.316;-6.294;2023-08-17T10:58:09;7.07;;;2.70;;
41719;SDS011;27405;53.316;-6.294;2023-08-17T11:00:37;7.50;;;2.58;;
41719;SDS011;27405;53.316;-6.294;2023-08-17T11:03:04;6.22;;;2.60;;
41719;SDS011;27405;53.316;-6.294;2023-08-17T11:05:44;8.25;;;2.60;;
41719;SDS011;27405;53.316;-6.294;2023-08-17T11:08:27;6.90;;;2.50;;
41719;SDS011;27405;53.316;-6.294;2023-08-17T11:11:04;8.23;;;2.60;;
41719;SDS011;27405;53.316;-6.294;2023-08-17T11:13:31;9.70;;;2.47;;
41719;SDS011;27405;53.316;-6.294;2023-08-17T11:15:59;9.80;;;2.83;;
41719;SDS011;27405;53.316;-6.294;2023-08-17T11:18:27;9.25;;;2.60;;
41719;SDS011;27405;53.316;-6.294;2023-08-17T11:20:53;7.00;;;2.60;;
41719;SDS011;27405;53.316;-6.294;2023-08-17T11:23:20;10.10;;;3.10;;
41719;SDS011;27405;53.316;-6.294;2023-08-17T11:25:47;11.88;;;2.80;;
41719;SDS011;27405;53.316;-6.294;2023-08-17T11:28:13;11.05;;;2.65;;
41719;SDS011;27405;53.316;-6.294;2023-08-17T11:30:40;9.15;;;2.67;;
41719;SDS011;27405;53.316;-6.294;2023-08-17T11:33:07;10.90;;;3.22;;
41719;SDS011;27405;53.316;-6.294;2023-08-17T11:35:34;6.95;;;2.90;;
41719;SDS011;27405;53.316;-6.294;2023-08-17T11:38:04;9.98;;;2.83;;
41719;SDS011;27405;53.316;-6.294;2023-08-17T11:40:31;6.53;;;2.50;;
41719;SDS011;27405;53.316;-6.294;2023-08-17T11:42:58;10.90;;;2.65;;
41719;SDS011;27405;53.316;-6.294;2023-08-17T11:45:24;9.10;;;2.60;;
41719;SDS011;27405;53.316;-6.294;2023-08-17T11:47:50;8.50;;;2.80;;
41719;SDS011;27405;53.316;-6.294;2023-08-17T11:50:17;10.73;;;3.00;;
41719;SDS011;27405;53.316;-6.294;2023-08-17T11:52:43;21.75;;;3.20;;
41719;SDS011;27405;53.316;-6.294;2023-08-17T11:55:09;13.05;;;3.58;;
41719;SDS011;27405;53.316;-6.294;2023-08-17T11:57:35;12.80;;;3.08;;
41719;SDS011;27405;53.316;-6.294;2023-08-17T12:00:03;7.63;;;2.92;;
41719;SDS011;27405;53.316;-6.294;2023-08-17T12:02:37;7.32;;;2.55;;
41719;SDS011;27405;53.316;-6.294;2023-08-17T12:05:07;9.45;;;3.00;;
41719;SDS011;27405;53.316;-6.294;2023-08-17T12:07:34;10.40;;;3.25;;
41719;SDS011;27405;53.316;-6.294;2023-08-17T12:10:03;12.35;;;3.38;;
41719;SDS011;27405;53.316;-6.294;2023-08-17T12:12:30;10.88;;;3.10;;
41719;SDS011;27405;53.316;-6.294;2023-08-17T12:14:57;6.25;;;2.78;;
41719;SDS011;27405;53.316;-6.294;2023-08-17T12:17:23;10.52;;;3.47;;
41719;SDS011;27405;53.316;-6.294;2023-08-17T12:19:53;9.85;;;3.50;;
41719;SDS011;27405;53.316;-6.294;2023-08-17T12:22:22;9.23;;;3.47;;
41719;SDS011;27405;53.316;-6.294;2023-08-17T12:24:49;9.20;;;3.30;;
41719;SDS011;27405;53.316;-6.294;2023-08-17T12:27:17;10.68;;;4.40;;
41719;SDS011;27405;53.316;-6.294;2023-08-17T12:29:47;13.02;;;4.57;;
41719;SDS011;27405;53.316;-6.294;2023-08-17T12:32:15;14.05;;;4.80;;
41719;SDS011;27405;53.316;-6.294;2023-08-17T12:37:10;12.48;;;4.93;;
41719;SDS011;27405;53.316;-6.294;2023-08-17T12:39:38;8.88;;;4.50;;
41719;SDS011;27405;53.316;-6.294;2023-08-17T12:42:04;14.50;;;5.05;;
41719;SDS011;27405;53.316;-6.294;2023-08-17T12:44:31;11.95;;;4.80;;
41719;SDS011;27405;53.316;-6.294;2023-08-17T12:46:57;9.68;;;4.47;;
41719;SDS011;27405;53.316;-6.294;2023-08-17T12:49:23;15.23;;;5.20;;
41719;SDS011;27405;53.316;-6.294;2023-08-17T12:51:49;17.52;;;4.72;;
41719;SDS011;27405;53.316;-6.294;2023-08-17T12:54:17;12.07;;;4.72;;
41719;SDS011;27405;53.316;-6.294;2023-08-17T12:56:43;7.93;;;4.57;;
41719;SDS011;27405;53.316;-6.294;2023-08-17T12:59:10;11.05;;;5.15;;
41719;SDS011;27405;53.316;-6.294;2023-08-17T13:01:39;11.73;;;5.38;;
41719;SDS011;27405;53.316;-6.294;2023-08-17T13:04:07;13.52;;;5.00;;
41719;SDS011;27405;53.316;-6.294;2023-08-17T13:06:33;11.00;;;4.30;;
41719;SDS011;27405;53.316;-6.294;2023-08-17T13:08:58;17.48;;;4.93;;
41719;SDS011;27405;53.316;-6.294;2023-08-17T13:11:24;12.00;;;5.50;;
41719;SDS011;27405;53.316;-6.294;2023-08-17T13:13:51;13.40;;;4.60;;
41719;SDS011;27405;53.316;-6.294;2023-08-17T13:16:17;13.98;;;4.75;;
41719;SDS011;27405;53.316;-6.294;2023-08-17T13:18:43;11.70;;;5.07;;
41719;SDS011;27405;53.316;-6.294;2023-08-17T13:21:09;14.23;;;4.65;;
41719;SDS011;27405;53.316;-6.294;2023-08-17T13:23:35;10.70;;;4.25;;
41719;SDS011;27405;53.316;-6.294;2023-08-17T13:26:01;11.18;;;4.85;;
41719;SDS011;27405;53.316;-6.294;2023-08-17T13:28:27;9.52;;;4.45;;
41719;SDS011;27405;53.316;-6.294;2023-08-17T13:30:53;9.73;;;4.20;;
41719;SDS011;27405;53.316;-6.294;2023-08-17T13:33:19;11.93;;;4.20;;
41719;SDS011;27405;53.316;-6.294;2023-08-17T13:35:45;13.65;;;4.72;;
41719;SDS011;27405;53.316;-6.294;2023-08-17T13:38:11;7.80;;;3.97;;
41719;SDS011;27405;53.316;-6.294;2023-08-17T13:40:37;10.25;;;4.25;;
41719;SDS011;27405;53.316;-6.294;2023-08-17T13:43:04;11.65;;;3.97;;
41719;SDS011;27405;53.316;-6.294;2023-08-17T13:45:37;13.57;;;3.92;;
41719;SDS011;27405;53.316;-6.294;2023-08-17T13:48:04;13.40;;;3.70;;
41719;SDS011;27405;53.316;-6.294;2023-08-17T13:50:34;12.10;;;3.80;;
41719;SDS011;27405;53.316;-6.294;2023-08-17T13:53:02;14.40;;;3.83;;
41719;SDS011;27405;53.316;-6.294;2023-08-17T13:55:29;9.77;;;3.75;;
41719;SDS011;27405;53.316;-6.294;2023-08-17T13:57:55;10.73;;;4.20;;
41719;SDS011;27405;53.316;-6.294;2023-08-17T14:00:23;11.03;;;3.80;;
41719;SDS011;27405;53.316;-6.294;2023-08-17T14:02:49;10.15;;;3.60;;
41719;SDS011;27405;53.316;-6.294;2023-08-17T14:05:16;8.93;;;3.50;;
41719;SDS011;27405;53.316;-6.294;2023-08-17T14:07:42;12.30;;;4.10;;
41719;SDS011;27405;53.316;-6.294;2023-08-17T14:10:08;13.10;;;4.05;;
41719;SDS011;27405;53.316;-6.294;2023-08-17T14:12:34;11.07;;;4.20;;
41719;SDS011;27405;53.316;-6.294;2023-08-17T14:15:00;9.57;;;3.92;;
41719;SDS011;27405;53.316;-6.294;2023-08-17T14:17:27;10.80;;;4.20;;
41719;SDS011;27405;53.316;-6.294;2023-08-17T14:19:53;10.48;;;3.97;;
41719;SDS011;27405;53.316;-6.294;2023-08-17T14:22:21;16.58;;;4.22;;
41719;SDS011;27405;53.316;-6.294;2023-08-17T14:24:48;13.57;;;3.97;;
41719;SDS011;27405;53.316;-6.294;2023-08-17T14:27:14;12.50;;;4.38;;
41719;SDS011;27405;53.316;-6.294;2023-08-17T14:29:40;11.50;;;3.75;;
41719;SDS011;27405;53.316;-6.294;2023-08-17T14:32:06;10.20;;;4.03;;
41719;SDS011;27405;53.316;-6.294;2023-08-17T14:34:32;11.05;;;4.55;;
41719;SDS011;27405;53.316;-6.294;2023-08-17T14:36:58;13.15;;;4.20;;
41719;SDS011;27405;53.316;-6.294;2023-08-17T14:39:24;9.38;;;4.10;;
41719;SDS011;27405;53.316;-6.294;2023-08-17T14:41:50;11.77;;;4.47;;
41719;SDS011;27405;53.316;-6.294;2023-08-17T14:44:17;12.73;;;4.65;;
41719;SDS011;27405;53.316;-6.294;2023-08-17T14:46:44;12.48;;;4.32;;
41719;SDS011;27405;53.316;-6.294;2023-08-17T14:49:10;15.15;;;4.40;;
41719;SDS011;27405;53.316;-6.294;2023-08-17T14:51:39;13.30;;;4.43;;
41719;SDS011;27405;53.316;-6.294;2023-08-17T14:54:06;11.40;;;4.53;;
41719;SDS011;27405;53.316;-6.294;2023-08-17T14:56:33;12.65;;;4.30;;
41719;SDS011;27405;53.316;-6.294;2023-08-17T14:58:59;10.30;;;4.03;;
41719;SDS011;27405;53.316;-6.294;2023-08-17T15:01:27;16.92;;;5.70;;
41719;SDS011;27405;53.316;-6.294;2023-08-17T15:03:55;10.85;;;4.60;;
41719;SDS011;27405;53.316;-6.294;2023-08-17T15:06:22;15.88;;;4.40;;
41719;SDS011;27405;53.316;-6.294;2023-08-17T15:08:53;14.10;;;4.60;;
41719;SDS011;27405;53.316;-6.294;2023-08-17T15:11:20;14.38;;;4.13;;